Aviation Digital Data Service (ADDS)

Output produced by METARs form (0710 UTC 23 February 2017)
found at http://aviationweather.gov/adds/metars/
 
KFRG 230702Z AUTO 10003KT 1/4SM FG VV002 04/03 A2990 RMK AO2 T00390033
KFRG 230653Z AUTO 09003KT 3/4SM BR VV002 04/03 A2990 RMK AO2 SLP126 T00390028
KFRG 230649Z AUTO 10003KT 1 1/2SM BR BKN002 04/03 A2990 RMK AO2
KFRG 230634Z AUTO 00000KT 1 3/4SM BR FEW002 04/03 A2990 RMK AO2 T00390028
KISP 230532Z 2306/2406 VRB02KT 1/4SM FG VV001 
     FM231400 20006KT 1/2SM FG OVC005 
     FM231600 20005KT 3SM BR BKN011 
     FM231900 20008KT P6SM BKN035 
     FM240100 21003KT 5SM BR OVC020 
     FM240400 18003KT 1/2SM FG OVC003
       
KJFK 230651Z 00000KT 10SM SCT250 04/04 A2990 RMK AO2 SLP125 T00440044
KJFK 230709Z 2307/2412 VRB02KT 4SM BR SCT004 SCT250 
     FM230800 VRB02KT 1SM BR BKN004 
     FM230900 VRB02KT 1/2SM FG OVC003 
     TEMPO 2309/2312 1/4SM FG OVC002 
     FM231500 20008KT 3SM BR BKN010 
     FM231900 20010KT P6SM BKN030 
     FM240300 19005KT 3SM BR SCT004 OVC025 
     FM240700 17004KT 1/2SM FG OVC004
       
KBDR 230532Z 2306/2406 VRB03KT P6SM BKN250 
     FM230800 VRB02KT 4SM BR SCT005 BKN250 
     FM231000 VRB03KT 1/2SM FG BKN005 
     TEMPO 2310/2312 1/4SM FG OVC003 
     FM231500 20005KT 1 1/2SM BR BKN009 BKN020 
     FM231800 20006KT P6SM BKN035 
     FM240300 VRB02KT 1SM BR OVC010